sensor_id;sensor_type;location;lat;lon;timestamp;pressure;altitude;pressure_sealevel;temperature;humidity
49367;BME280;35245;52.026;8.540;2023-01-25T00:00:31;51095.94;;;-145.42;100.00
49367;BME280;35245;52.026;8.540;2023-01-25T00:02:59;51115.75;;;-145.42;100.00
49367;BME280;35245;52.026;8.540;2023-01-25T00:05:26;51127.66;;;-145.42;100.00
49367;BME280;35245;52.026;8.540;2023-01-25T00:07:53;51105.84;;;-145.42;100.00
49367;BME280;35245;52.026;8.540;2023-01-25T00:10:21;51070.16;;;-145.42;100.00
49367;BME280;35245;52.026;8.540;2023-01-25T00:12:48;51115.75;;;-145.42;100.00
49367;BME280;35245;52.026;8.540;2023-01-25T00:15:16;51123.69;;;-145.42;100.00
49367;BME280;35245;52.026;8.540;2023-01-25T00:17:44;51107.84;;;-145.42;100.00
49367;BME280;35245;52.026;8.540;2023-01-25T00:20:11;51109.81;;;-145.42;100.00
49367;BME280;35245;52.026;8.540;2023-01-25T00:22:39;51113.78;;;-145.42;100.00
49367;BME280;35245;52.026;8.540;2023-01-25T00:25:07;51091.97;;;-145.42;100.00
49367;BME280;35245;52.026;8.540;2023-01-25T00:27:35;51088.00;;;-145.42;100.00
49367;BME280;35245;52.026;8.540;2023-01-25T00:30:03;51129.63;;;-145.42;100.00
49367;BME280;35245;52.026;8.540;2023-01-25T00:32:49;51101.88;;;-145.42;100.00
49367;BME280;35245;52.026;8.540;2023-01-25T00:35:19;51123.69;;;-145.42;100.00
49367;BME280;35245;52.026;8.540;2023-01-25T00:37:47;51115.75;;;-145.42;100.00
49367;BME280;35245;52.026;8.540;2023-01-25T00:40:16;51111.81;;;-145.42;100.00
49367;BME280;35245;52.026;8.540;2023-01-25T00:42:43;51090.00;;;-145.42;100.00
49367;BME280;35245;52.026;8.540;2023-01-25T00:45:11;51109.81;;;-145.42;100.00
49367;BME280;35245;52.026;8.540;2023-01-25T00:47:39;51105.84;;;-145.42;100.00
49367;BME280;35245;52.026;8.540;2023-01-25T00:50:09;51119.72;;;-145.42;100.00
49367;BME280;35245;52.026;8.540;2023-01-25T00:52:37;51115.75;;;-145.42;100.00
49367;BME280;35245;52.026;8.540;2023-01-25T00:55:07;51101.88;;;-145.42;100.00
49367;BME280;35245;52.026;8.540;2023-01-25T00:57:34;51099.91;;;-145.42;100.00
49367;BME280;35245;52.026;8.540;2023-01-25T01:00:01;51097.91;;;-145.42;100.00
49367;BME280;35245;52.026;8.540;2023-01-25T01:02:30;51123.69;;;-145.42;100.00
49367;BME280;35245;52.026;8.540;2023-01-25T01:04:57;51091.97;;;-145.42;100.00
49367;BME280;35245;52.026;8.540;2023-01-25T01:07:27;51101.88;;;-145.42;100.00
49367;BME280;35245;52.026;8.540;2023-01-25T01:09:54;51129.63;;;-145.42;100.00
49367;BME280;35245;52.026;8.540;2023-01-25T01:12:21;51125.69;;;-145.42;100.00
49367;BME280;35245;52.026;8.540;2023-01-25T01:14:48;51080.09;;;-145.42;100.00
49367;BME280;35245;52.026;8.540;2023-01-25T01:17:15;51115.75;;;-145.42;100.00
49367;BME280;35245;52.026;8.540;2023-01-25T01:19:43;51080.09;;;-145.42;100.00
49367;BME280;35245;52.026;8.540;2023-01-25T01:22:10;51103.88;;;-145.42;100.00
49367;BME280;35245;52.026;8.540;2023-01-25T01:24:39;51082.06;;;-145.42;100.00
49367;BME280;35245;52.026;8.540;2023-01-25T01:27:07;51101.88;;;-145.42;100.00
49367;BME280;35245;52.026;8.540;2023-01-25T01:29:34;51129.63;;;-145.42;100.00
49367;BME280;35245;52.026;8.540;2023-01-25T01:32:01;51103.88;;;-145.42;100.00
49367;BME280;35245;52.026;8.540;2023-01-25T01:34:28;51082.06;;;-145.42;100.00
49367;BME280;35245;52.026;8.540;2023-01-25T01:36:55;51080.09;;;-145.42;100.00
49367;BME280;35245;52.026;8.540;2023-01-25T01:39:23;51101.88;;;-145.42;100.00
49367;BME280;35245;52.026;8.540;2023-01-25T01:41:51;51062.25;;;-145.42;100.00
49367;BME280;35245;52.026;8.540;2023-01-25T01:44:20;51090.00;;;-145.42;100.00
49367;BME280;35245;52.026;8.540;2023-01-25T01:46:52;51072.16;;;-145.42;100.00
49367;BME280;35245;52.026;8.540;2023-01-25T01:49:22;51076.13;;;-145.42;100.00
49367;BME280;35245;52.026;8.540;2023-01-25T01:51:53;51052.34;;;-145.42;100.00
49367;BME280;35245;52.026;8.540;2023-01-25T01:54:28;51090.00;;;-145.42;100.00
49367;BME280;35245;52.026;8.540;2023-01-25T01:57:04;51080.09;;;-145.42;100.00
49367;BME280;35245;52.026;8.540;2023-01-25T01:59:40;51091.97;;;-145.42;100.00
49367;BME280;35245;52.026;8.540;2023-01-25T02:02:08;51093.97;;;-145.42;100.00
49367;BME280;35245;52.026;8.540;2023-01-25T02:04:36;51058.28;;;-145.42;100.00
49367;BME280;35245;52.026;8.540;2023-01-25T02:07:07;51101.88;;;-145.42;100.00
49367;BME280;35245;52.026;8.540;2023-01-25T02:09:37;51074.13;;;-145.42;100.00
49367;BME280;35245;52.026;8.540;2023-01-25T02:12:07;51090.00;;;-145.42;100.00
49367;BME280;35245;52.026;8.540;2023-01-25T02:14:37;51097.91;;;-145.42;100.00
49367;BME280;35245;52.026;8.540;2023-01-25T02:17:10;51078.09;;;-145.42;100.00
49367;BME280;35245;52.026;8.540;2023-01-25T02:19:44;51080.09;;;-145.42;100.00
49367;BME280;35245;52.026;8.540;2023-01-25T02:22:14;51111.81;;;-145.42;100.00
49367;BME280;35245;52.026;8.540;2023-01-25T02:24:46;51101.88;;;-145.42;100.00
49367;BME280;35245;52.026;8.540;2023-01-25T02:27:18;51090.00;;;-145.42;100.00
49367;BME280;35245;52.026;8.540;2023-01-25T02:29:45;51070.16;;;-145.42;100.00
49367;BME280;35245;52.026;8.540;2023-01-25T02:32:13;51091.97;;;-145.42;100.00
49367;BME280;35245;52.026;8.540;2023-01-25T02:34:40;51093.97;;;-145.42;100.00
49367;BME280;35245;52.026;8.540;2023-01-25T02:37:09;51070.16;;;-145.42;100.00
49367;BME280;35245;52.026;8.540;2023-01-25T02:39:40;51076.13;;;-145.42;100.00
49367;BME280;35245;52.026;8.540;2023-01-25T02:42:08;51078.09;;;-145.42;100.00
49367;BME280;35245;52.026;8.540;2023-01-25T02:44:37;51066.22;;;-145.42;100.00
49367;BME280;35245;52.026;8.540;2023-01-25T02:47:04;51080.09;;;-145.42;100.00
49367;BME280;35245;52.026;8.540;2023-01-25T02:49:34;51052.34;;;-145.42;100.00
49367;BME280;35245;52.026;8.540;2023-01-25T02:52:02;51091.97;;;-145.42;100.00
49367;BME280;35245;52.026;8.540;2023-01-25T02:54:30;51034.50;;;-145.42;100.00
49367;BME280;35245;52.026;8.540;2023-01-25T02:56:58;51074.13;;;-145.42;100.00
49367;BME280;35245;52.026;8.540;2023-01-25T02:59:25;51078.09;;;-145.42;100.00
49367;BME280;35245;52.026;8.540;2023-01-25T03:01:53;51052.34;;;-145.42;100.00
49367;BME280;35245;52.026;8.540;2023-01-25T03:04:21;51042.41;;;-145.42;100.00
49367;BME280;35245;52.026;8.540;2023-01-25T03:06:48;51056.28;;;-145.42;100.00
49367;BME280;35245;52.026;8.540;2023-01-25T03:09:16;51054.31;;;-145.42;100.00
49367;BME280;35245;52.026;8.540;2023-01-25T03:11:43;51066.22;;;-145.42;100.00
49367;BME280;35245;52.026;8.540;2023-01-25T03:14:11;51046.38;;;-145.42;100.00
49367;BME280;35245;52.026;8.540;2023-01-25T03:16:38;51040.44;;;-145.42;100.00
49367;BME280;35245;52.026;8.540;2023-01-25T03:19:06;51072.16;;;-145.42;100.00
49367;BME280;35245;52.026;8.540;2023-01-25T03:21:33;51028.53;;;-145.42;100.00
49367;BME280;35245;52.026;8.540;2023-01-25T03:24:01;51026.56;;;-145.42;100.00
49367;BME280;35245;52.026;8.540;2023-01-25T03:26:29;51046.38;;;-145.42;100.00
49367;BME280;35245;52.026;8.540;2023-01-25T03:28:56;51066.22;;;-145.42;100.00
49367;BME280;35245;52.026;8.540;2023-01-25T03:31:23;51018.63;;;-145.42;100.00
49367;BME280;35245;52.026;8.540;2023-01-25T03:33:51;51052.34;;;-145.42;100.00
49367;BME280;35245;52.026;8.540;2023-01-25T03:36:19;51048.38;;;-145.42;100.00
49367;BME280;35245;52.026;8.540;2023-01-25T03:38:46;51028.53;;;-145.42;100.00
49367;BME280;35245;52.026;8.540;2023-01-25T03:41:14;51026.56;;;-145.42;100.00
49367;BME280;35245;52.026;8.540;2023-01-25T03:43:41;51030.53;;;-145.42;100.00
49367;BME280;35245;52.026;8.540;2023-01-25T03:46:08;51012.69;;;-145.42;100.00
49367;BME280;35245;52.026;8.540;2023-01-25T03:48:35;51016.66;;;-145.42;100.00
49367;BME280;35245;52.026;8.540;2023-01-25T03:51:03;51002.78;;;-145.42;100.00
49367;BME280;35245;52.026;8.540;2023-01-25T03:53:31;51000.78;;;-145.42;100.00
49367;BME280;35245;52.026;8.540;2023-01-25T03:56:02;51002.78;;;-145.42;100.00
49367;BME280;35245;52.026;8.540;2023-01-25T03:58:30;51014.66;;;-145.42;100.00
49367;BME280;35245;52.026;8.540;2023-01-25T04:00:58;51012.69;;;-145.42;100.00
49367;BME280;35245;52.026;8.540;2023-01-25T04:03:27;51014.66;;;-145.42;100.00
49367;BME280;35245;52.026;8.540;2023-01-25T04:05:55;51018.63;;;-145.42;100.00
49367;BME280;35245;52.026;8.540;2023-01-25T04:08:23;51028.53;;;-145.42;100.00
49367;BME280;35245;52.026;8.540;2023-01-25T04:10:53;51010.72;;;-145.42;100.00
49367;BME280;35245;52.026;8.540;2023-01-25T04:13:22;50996.84;;;-145.42;100.00
49367;BME280;35245;52.026;8.540;2023-01-25T04:15:50;51014.66;;;-145.42;100.00
49367;BME280;35245;52.026;8.540;2023-01-25T04:18:18;50990.88;;;-145.42;100.00
49367;BME280;35245;52.026;8.540;2023-01-25T04:20:50;50990.88;;;-145.42;100.00
49367;BME280;35245;52.026;8.540;2023-01-25T04:23:18;50973.03;;;-145.42;100.00
49367;BME280;35245;52.026;8.540;2023-01-25T04:25:53;50969.06;;;-145.42;100.00
49367;BME280;35245;52.026;8.540;2023-01-25T04:28:21;50943.31;;;-145.42;100.00
49367;BME280;35245;52.026;8.540;2023-01-25T04:30:48;50943.31;;;-145.42;100.00
49367;BME280;35245;52.026;8.540;2023-01-25T04:33:16;50915.56;;;-145.42;100.00
49367;BME280;35245;52.026;8.540;2023-01-25T04:35:43;50959.16;;;-145.42;100.00
49367;BME280;35245;52.026;8.540;2023-01-25T04:38:11;50967.09;;;-145.42;100.00
49367;BME280;35245;52.026;8.540;2023-01-25T04:40:39;50955.22;;;-145.42;100.00
49367;BME280;35245;52.026;8.540;2023-01-25T04:43:08;50909.63;;;-145.42;100.00
49367;BME280;35245;52.026;8.540;2023-01-25T04:45:35;50887.81;;;-145.42;100.00
49367;BME280;35245;52.026;8.540;2023-01-25T04:48:07;50883.84;;;-145.42;100.00
49367;BME280;35245;52.026;8.540;2023-01-25T04:50:36;50883.84;;;-145.42;100.00
49367;BME280;35245;52.026;8.540;2023-01-25T04:53:04;50814.47;;;-145.42;100.00
49367;BME280;35245;52.026;8.540;2023-01-25T04:55:32;50749.06;;;-145.42;100.00
49367;BME280;35245;52.026;8.540;2023-01-25T04:58:00;50772.84;;;-145.42;100.00
49367;BME280;35245;52.026;8.540;2023-01-25T05:00:30;50717.34;;;-145.42;100.00
49367;BME280;35245;52.026;8.540;2023-01-25T05:02:57;50788.72;;;-145.42;100.00
49367;BME280;35245;52.026;8.540;2023-01-25T05:05:24;50818.44;;;-145.42;100.00
49367;BME280;35245;52.026;8.540;2023-01-25T05:07:51;50842.22;;;-145.42;100.00
49367;BME280;35245;52.026;8.540;2023-01-25T05:10:19;50842.22;;;-145.42;100.00
49367;BME280;35245;52.026;8.540;2023-01-25T05:12:46;50917.53;;;-145.42;100.00
49367;BME280;35245;52.026;8.540;2023-01-25T05:15:13;50844.22;;;-145.42;100.00
49367;BME280;35245;52.026;8.540;2023-01-25T05:17:42;50879.88;;;-145.42;100.00
49367;BME280;35245;52.026;8.540;2023-01-25T05:20:11;50753.03;;;-145.42;100.00
49367;BME280;35245;52.026;8.540;2023-01-25T05:22:38;50683.66;;;-145.42;100.00
49367;BME280;35245;52.026;8.540;2023-01-25T05:25:06;50681.69;;;-145.42;100.00
49367;BME280;35245;52.026;8.540;2023-01-25T05:27:54;50667.81;;;-145.42;100.00
49367;BME280;35245;52.026;8.540;2023-01-25T05:30:20;50806.53;;;-145.42;100.00
49367;BME280;35245;52.026;8.540;2023-01-25T05:32:49;50776.81;;;-145.42;100.00
49367;BME280;35245;52.026;8.540;2023-01-25T05:35:16;50743.13;;;-145.42;100.00
49367;BME280;35245;52.026;8.540;2023-01-25T05:37:44;50768.88;;;-145.42;100.00
49367;BME280;35245;52.026;8.540;2023-01-25T05:40:12;50780.78;;;-145.42;100.00
49367;BME280;35245;52.026;8.540;2023-01-25T05:42:39;50848.16;;;-145.42;100.00
49367;BME280;35245;52.026;8.540;2023-01-25T05:45:09;50798.63;;;-145.42;100.00
49367;BME280;35245;52.026;8.540;2023-01-25T05:47:36;50762.94;;;-145.42;100.00
49367;BME280;35245;52.026;8.540;2023-01-25T05:50:06;50822.41;;;-145.42;100.00
49367;BME280;35245;52.026;8.540;2023-01-25T05:52:34;50802.56;;;-145.42;100.00
49367;BME280;35245;52.026;8.540;2023-01-25T05:55:01;50836.28;;;-145.42;100.00
49367;BME280;35245;52.026;8.540;2023-01-25T05:57:28;50836.28;;;-145.42;100.00
49367;BME280;35245;52.026;8.540;2023-01-25T05:59:55;50822.41;;;-145.42;100.00
49367;BME280;35245;52.026;8.540;2023-01-25T06:02:22;50848.16;;;-145.42;100.00
49367;BME280;35245;52.026;8.540;2023-01-25T06:04:49;50860.06;;;-145.42;100.00
49367;BME280;35245;52.026;8.540;2023-01-25T06:07:18;50826.38;;;-145.42;100.00
49367;BME280;35245;52.026;8.540;2023-01-25T06:09:45;50826.38;;;-145.42;100.00
49367;BME280;35245;52.026;8.540;2023-01-25T06:12:13;50850.16;;;-145.42;100.00
49367;BME280;35245;52.026;8.540;2023-01-25T06:14:41;50834.28;;;-145.42;100.00
49367;BME280;35245;52.026;8.540;2023-01-25T06:17:08;50840.25;;;-145.42;100.00
49367;BME280;35245;52.026;8.540;2023-01-25T06:19:36;50822.41;;;-145.42;100.00
49367;BME280;35245;52.026;8.540;2023-01-25T06:22:03;50842.22;;;-145.42;100.00
49367;BME280;35245;52.026;8.540;2023-01-25T06:24:31;50770.88;;;-145.42;100.00
49367;BME280;35245;52.026;8.540;2023-01-25T06:26:59;50788.72;;;-145.42;100.00
49367;BME280;35245;52.026;8.540;2023-01-25T06:29:26;50808.53;;;-145.42;100.00
49367;BME280;35245;52.026;8.540;2023-01-25T06:31:53;50780.78;;;-145.42;100.00
49367;BME280;35245;52.026;8.540;2023-01-25T06:34:21;50808.53;;;-145.42;100.00
49367;BME280;35245;52.026;8.540;2023-01-25T06:36:49;50808.53;;;-145.42;100.00
49367;BME280;35245;52.026;8.540;2023-01-25T06:39:16;50788.72;;;-145.42;100.00
49367;BME280;35245;52.026;8.540;2023-01-25T06:41:46;50780.78;;;-145.42;100.00
49367;BME280;35245;52.026;8.540;2023-01-25T06:44:13;50860.06;;;-145.42;100.00
49367;BME280;35245;52.026;8.540;2023-01-25T06:46:41;50749.06;;;-145.42;100.00
49367;BME280;35245;52.026;8.540;2023-01-25T06:49:09;50745.09;;;-145.42;100.00
49367;BME280;35245;52.026;8.540;2023-01-25T06:51:37;50751.03;;;-145.42;100.00
49367;BME280;35245;52.026;8.540;2023-01-25T06:54:04;50743.13;;;-145.42;100.00
49367;BME280;35245;52.026;8.540;2023-01-25T06:56:31;50717.34;;;-145.42;100.00
49367;BME280;35245;52.026;8.540;2023-01-25T06:59:00;50657.88;;;-145.42;100.00
49367;BME280;35245;52.026;8.540;2023-01-25T07:01:27;50669.78;;;-145.42;100.00
49367;BME280;35245;52.026;8.540;2023-01-25T07:03:56;50620.22;;;-145.42;100.00
49367;BME280;35245;52.026;8.540;2023-01-25T07:06:24;50689.59;;;-145.42;100.00
49367;BME280;35245;52.026;8.540;2023-01-25T07:08:52;50725.28;;;-145.42;100.00
49367;BME280;35245;52.026;8.540;2023-01-25T07:11:19;50594.47;;;-145.42;100.00
49367;BME280;35245;52.026;8.540;2023-01-25T07:13:47;50515.19;;;-145.42;100.00
49367;BME280;35245;52.026;8.540;2023-01-25T07:16:18;50574.66;;;-145.42;100.00
49367;BME280;35245;52.026;8.540;2023-01-25T07:18:46;50544.91;;;-145.42;100.00
49367;BME280;35245;52.026;8.540;2023-01-25T07:21:16;50424.03;;;-145.42;100.00
49367;BME280;35245;52.026;8.540;2023-01-25T07:23:45;50507.25;;;-145.42;100.00
49367;BME280;35245;52.026;8.540;2023-01-25T07:26:15;50562.75;;;-145.42;100.00
49367;BME280;35245;52.026;8.540;2023-01-25T07:28:43;50562.75;;;-145.42;100.00
49367;BME280;35245;52.026;8.540;2023-01-25T07:31:12;50469.59;;;-145.42;100.00
49367;BME280;35245;52.026;8.540;2023-01-25T07:33:41;50467.63;;;-145.42;100.00
49367;BME280;35245;52.026;8.540;2023-01-25T07:36:10;50451.75;;;-145.42;100.00
49367;BME280;35245;52.026;8.540;2023-01-25T07:38:37;50382.41;;;-145.42;100.00
49367;BME280;35245;52.026;8.540;2023-01-25T07:41:05;50350.69;;;-145.42;100.00
49367;BME280;35245;52.026;8.540;2023-01-25T07:43:32;50354.66;;;-145.42;100.00
49367;BME280;35245;52.026;8.540;2023-01-25T07:46:00;50322.94;;;-145.42;100.00
49367;BME280;35245;52.026;8.540;2023-01-25T07:48:28;50315.00;;;-145.42;100.00
49367;BME280;35245;52.026;8.540;2023-01-25T07:50:59;50336.81;;;-145.42;100.00
49367;BME280;35245;52.026;8.540;2023-01-25T07:53:46;50416.09;;;-145.42;100.00
49367;BME280;35245;52.026;8.540;2023-01-25T07:56:14;50301.13;;;-145.42;100.00
49367;BME280;35245;52.026;8.540;2023-01-25T08:01:09;50334.84;;;-145.42;100.00
49367;BME280;35245;52.026;8.540;2023-01-25T08:03:37;50394.28;;;-145.42;100.00
49367;BME280;35245;52.026;8.540;2023-01-25T08:06:06;50376.44;;;-145.42;100.00
49367;BME280;35245;52.026;8.540;2023-01-25T08:08:38;50188.19;;;-145.42;100.00
49367;BME280;35245;52.026;8.540;2023-01-25T08:11:12;50247.63;;;-145.42;100.00
49367;BME280;35245;52.026;8.540;2023-01-25T08:13:40;50174.31;;;-145.42;100.00
49367;BME280;35245;52.026;8.540;2023-01-25T08:16:11;50243.66;;;-145.42;100.00
49367;BME280;35245;52.026;8.540;2023-01-25T08:18:38;50130.72;;;-145.42;100.00
49367;BME280;35245;52.026;8.540;2023-01-25T08:21:07;49516.41;;;-145.42;100.00
49367;BME280;35245;52.026;8.540;2023-01-25T08:23:34;50007.84;;;-145.42;100.00
49367;BME280;35245;52.026;8.540;2023-01-25T08:26:02;50344.75;;;-145.42;100.00
49367;BME280;35245;52.026;8.540;2023-01-25T08:28:30;50368.53;;;-145.42;100.00
49367;BME280;35245;52.026;8.540;2023-01-25T08:31:05;50320.97;;;-145.42;100.00
49367;BME280;35245;52.026;8.540;2023-01-25T08:33:33;50350.69;;;-145.42;100.00
49367;BME280;35245;52.026;8.540;2023-01-25T08:36:00;50356.63;;;-145.42;100.00
49367;BME280;35245;52.026;8.540;2023-01-25T08:38:29;50305.09;;;-145.42;100.00
49367;BME280;35245;52.026;8.540;2023-01-25T08:41:03;50289.25;;;-145.42;100.00
49367;BME280;35245;52.026;8.540;2023-01-25T08:43:30;50479.50;;;-145.42;100.00
49367;BME280;35245;52.026;8.540;2023-01-25T08:45:57;50517.16;;;-145.42;100.00
49367;BME280;35245;52.026;8.540;2023-01-25T08:48:24;50431.94;;;-145.42;100.00
49367;BME280;35245;52.026;8.540;2023-01-25T08:50:51;50497.34;;;-145.42;100.00
49367;BME280;35245;52.026;8.540;2023-01-25T08:53:19;50459.69;;;-145.42;100.00
49367;BME280;35245;52.026;8.540;2023-01-25T08:55:53;50453.75;;;-145.42;100.00
49367;BME280;35245;52.026;8.540;2023-01-25T08:58:21;50124.75;;;-145.42;100.00
49367;BME280;35245;52.026;8.540;2023-01-25T09:00:48;50317.00;;;-145.42;100.00
49367;BME280;35245;52.026;8.540;2023-01-25T09:03:15;50065.31;;;-145.42;100.00
49367;BME280;35245;52.026;8.540;2023-01-25T09:05:43;50083.16;;;-145.42;100.00
49367;BME280;35245;52.026;8.540;2023-01-25T09:08:10;50190.16;;;-145.42;100.00
49367;BME280;35245;52.026;8.540;2023-01-25T09:10:37;49583.78;;;-145.42;100.00
49367;BME280;35245;52.026;8.540;2023-01-25T09:13:06;49768.06;;;-145.42;100.00
49367;BME280;35245;52.026;8.540;2023-01-25T09:15:33;49886.97;;;-145.42;100.00
49367;BME280;35245;52.026;8.540;2023-01-25T09:18:00;49801.75;;;-145.42;100.00
49367;BME280;35245;52.026;8.540;2023-01-25T09:20:27;49968.22;;;-145.42;100.00
49367;BME280;35245;52.026;8.540;2023-01-25T09:22:55;49954.34;;;-145.42;100.00
49367;BME280;35245;52.026;8.540;2023-01-25T09:25:22;50130.72;;;-145.42;100.00
49367;BME280;35245;52.026;8.540;2023-01-25T09:27:50;50055.41;;;-145.42;100.00
49367;BME280;35245;52.026;8.540;2023-01-25T09:30:19;50233.75;;;-145.42;100.00
49367;BME280;35245;52.026;8.540;2023-01-25T09:32:49;50241.69;;;-145.42;100.00
49367;BME280;35245;52.026;8.540;2023-01-25T09:35:16;50255.56;;;-145.42;100.00
49367;BME280;35245;52.026;8.540;2023-01-25T09:37:43;49993.97;;;-145.42;100.00
49367;BME280;35245;52.026;8.540;2023-01-25T09:40:19;50118.81;;;-145.42;100.00
49367;BME280;35245;52.026;8.540;2023-01-25T09:43:05;49958.28;;;-145.42;100.00
49367;BME280;35245;52.026;8.540;2023-01-25T09:45:40;50313.03;;;-145.42;100.00
49367;BME280;35245;52.026;8.540;2023-01-25T09:48:19;50150.53;;;-145.42;100.00
49367;BME280;35245;52.026;8.540;2023-01-25T09:51:09;49936.50;;;-145.42;100.00
49367;BME280;35245;52.026;8.540;2023-01-25T09:53:46;49651.16;;;-145.42;100.00
49367;BME280;35245;52.026;8.540;2023-01-25T09:56:21;49686.81;;;-145.42;100.00
49367;BME280;35245;52.026;8.540;2023-01-25T09:58:53;49714.56;;;-145.42;100.00
49367;BME280;35245;52.026;8.540;2023-01-25T10:01:31;49944.44;;;-145.42;100.00
49367;BME280;35245;52.026;8.540;2023-01-25T10:04:05;50043.50;;;-145.42;100.00
49367;BME280;35245;52.026;8.540;2023-01-25T10:06:39;49898.84;;;-145.42;100.00
49367;BME280;35245;52.026;8.540;2023-01-25T10:09:26;49974.16;;;-145.42;100.00
49367;BME280;35245;52.026;8.540;2023-01-25T10:11:58;50138.63;;;-145.42;100.00
49367;BME280;35245;52.026;8.540;2023-01-25T10:14:29;50178.28;;;-145.42;100.00
49367;BME280;35245;52.026;8.540;2023-01-25T10:17:09;49732.41;;;-145.42;100.00
49367;BME280;35245;52.026;8.540;2023-01-25T10:19:57;49365.81;;;-145.42;100.00
49367;BME280;35245;52.026;8.540;2023-01-25T10:22:34;49770.03;;;-145.42;100.00
49367;BME280;35245;52.026;8.540;2023-01-25T10:25:26;49696.72;;;-145.42;100.00
49367;BME280;35245;52.026;8.540;2023-01-25T10:28:15;48648.63;;;-145.42;100.00
49367;BME280;35245;52.026;8.540;2023-01-25T10:30:54;48549.56;;;-145.42;100.00
49367;BME280;35245;52.026;8.540;2023-01-25T10:33:24;48815.03;;;-145.42;100.00
49367;BME280;35245;52.026;8.540;2023-01-25T10:35:55;49797.78;;;-145.42;100.00
49367;BME280;35245;52.026;8.540;2023-01-25T10:38:29;49956.31;;;-145.42;100.00
49367;BME280;35245;52.026;8.540;2023-01-25T10:41:02;49569.91;;;-145.42;100.00
49367;BME280;35245;52.026;8.540;2023-01-25T10:43:30;49132.03;;;-145.42;100.00
49367;BME280;35245;52.026;8.540;2023-01-25T10:45:57;49575.84;;;-145.42;100.00
49367;BME280;35245;52.026;8.540;2023-01-25T10:48:31;49532.25;;;-145.42;100.00
49367;BME280;35245;52.026;8.540;2023-01-25T10:51:00;49809.69;;;-145.42;100.00
49367;BME280;35245;52.026;8.540;2023-01-25T10:53:30;49143.91;;;-145.42;100.00
49367;BME280;35245;52.026;8.540;2023-01-25T10:56:18;47462.19;;;-145.42;100.00
49367;BME280;35245;52.026;8.540;2023-01-25T10:58:50;48898.25;;;-145.42;100.00
49367;BME280;35245;52.026;8.540;2023-01-25T11:01:28;48670.41;;;-145.42;100.00
49367;BME280;35245;52.026;8.540;2023-01-25T11:03:58;46876.00;;;-145.42;100.00
49367;BME280;35245;52.026;8.540;2023-01-25T11:06:34;48093.97;;;-145.42;100.00
49367;BME280;35245;52.026;8.540;2023-01-25T11:09:39;49090.41;;;-145.42;100.00
49367;BME280;35245;52.026;8.540;2023-01-25T11:12:18;48779.38;;;-145.42;100.00
49367;BME280;35245;52.026;8.540;2023-01-25T11:14:47;48167.28;;;-145.42;100.00
49367;BME280;35245;52.026;8.540;2023-01-25T11:17:25;49050.78;;;-145.42;100.00
49367;BME280;35245;52.026;8.540;2023-01-25T11:20:18;49462.91;;;-145.42;100.00
49367;BME280;35245;52.026;8.540;2023-01-25T11:22:50;49478.75;;;-145.42;100.00
49367;BME280;35245;52.026;8.540;2023-01-25T11:25:30;48920.03;;;-145.42;100.00
49367;BME280;35245;52.026;8.540;2023-01-25T11:28:16;49215.25;;;-145.42;100.00
49367;BME280;35245;52.026;8.540;2023-01-25T11:30:44;49431.22;;;-145.42;100.00
49367;BME280;35245;52.026;8.540;2023-01-25T11:33:13;49060.69;;;-145.42;100.00
49367;BME280;35245;52.026;8.540;2023-01-25T11:36:02;49030.97;;;-145.42;100.00
49367;BME280;35245;52.026;8.540;2023-01-25T11:38:32;47911.75;;;-145.42;100.00
49367;BME280;35245;52.026;8.540;2023-01-25T11:41:08;45478.28;;;-145.42;100.00
49367;BME280;35245;52.026;8.540;2023-01-25T11:43:57;44579.75;;;-145.42;100.00
49367;BME280;35245;52.026;8.540;2023-01-25T11:46:43;46545.34;;;-145.42;100.00
49367;BME280;35245;52.026;8.540;2023-01-25T11:49:45;48513.91;;;-145.42;100.00
49367;BME280;35245;52.026;8.540;2023-01-25T11:52:29;49274.69;;;-145.42;100.00
49367;BME280;35245;52.026;8.540;2023-01-25T11:55:10;48832.88;;;-145.42;100.00
49367;BME280;35245;52.026;8.540;2023-01-25T11:58:02;45947.44;;;-145.42;100.00
49367;BME280;35245;52.026;8.540;2023-01-25T12:00:42;40661.34;;;-145.42;100.00
49367;BME280;35245;52.026;8.540;2023-01-25T12:03:42;35623.19;;;-145.42;100.00
49367;BME280;35245;52.026;8.540;2023-01-25T12:06:21;44364.03;;;-145.42;100.00
49367;BME280;35245;52.026;8.540;2023-01-25T12:09:07;43012.69;;;-145.42;100.00
49367;BME280;35245;52.026;8.540;2023-01-25T12:11:53;46915.63;;;-145.42;100.00
49367;BME280;35245;52.026;8.540;2023-01-25T12:14:32;46915.63;;;-145.42;100.00
49367;BME280;35245;52.026;8.540;2023-01-25T12:17:19;48171.22;;;-145.42;100.00
49367;BME280;35245;52.026;8.540;2023-01-25T12:20:09;47137.41;;;-145.42;100.00
49367;BME280;35245;52.026;8.540;2023-01-25T12:23:10;47703.78;;;-145.42;100.00
49367;BME280;35245;52.026;8.540;2023-01-25T12:25:55;48854.66;;;-145.42;100.00
49367;BME280;35245;52.026;8.540;2023-01-25T12:28:32;49094.38;;;-145.42;100.00
49367;BME280;35245;52.026;8.540;2023-01-25T12:31:08;49466.88;;;-145.42;100.00
49367;BME280;35245;52.026;8.540;2023-01-25T12:33:41;49367.81;;;-145.42;100.00
49367;BME280;35245;52.026;8.540;2023-01-25T12:36:15;48086.06;;;-145.42;100.00
49367;BME280;35245;52.026;8.540;2023-01-25T12:38:50;48472.31;;;-145.42;100.00
49367;BME280;35245;52.026;8.540;2023-01-25T12:41:29;48375.25;;;-145.42;100.00
49367;BME280;35245;52.026;8.540;2023-01-25T12:44:07;49042.88;;;-145.42;100.00
49367;BME280;35245;52.026;8.540;2023-01-25T12:46:44;49298.44;;;-145.42;100.00
49367;BME280;35245;52.026;8.540;2023-01-25T12:49:20;49312.31;;;-145.42;100.00
49367;BME280;35245;52.026;8.540;2023-01-25T12:51:50;48836.81;;;-145.42;100.00